createdAt,value
2023-05-01T00:01:53.670Z,21.46
2023-05-01T00:04:27.485Z,21.42
2023-05-01T00:07:01.072Z,21.45
2023-05-01T00:09:47.064Z,21.42
2023-05-01T00:12:26.971Z,21.26
2023-05-01T00:15:00.964Z,21.34
2023-05-01T00:17:33.491Z,21.36
2023-05-01T00:20:08.100Z,21.32
2023-05-01T00:22:43.011Z,21.25
2023-05-01T00:25:15.588Z,21.25
2023-05-01T00:27:52.898Z,21.24
2023-05-01T00:30:27.306Z,21.18
2023-05-01T00:32:59.525Z,21.18
2023-05-01T00:35:39.499Z,21.06
2023-05-01T00:38:14.513Z,21.16
2023-05-01T00:40:49.550Z,21.18
2023-05-01T00:43:23.134Z,21.08
2023-05-01T00:45:56.711Z,21.06
2023-05-01T00:48:34.564Z,21.14
2023-05-01T00:51:10.679Z,21.15
2023-05-01T00:53:46.093Z,21.12
2023-05-01T00:56:23.971Z,21.18
2023-05-01T00:58:57.868Z,21.21
2023-05-01T01:01:33.417Z,21.15
2023-05-01T01:04:08.909Z,21.01
2023-05-01T01:07:03.005Z,20.90
2023-05-01T01:10:08.082Z,20.87
2023-05-01T01:13:08.811Z,20.83
2023-05-01T01:16:09.798Z,20.91
2023-05-01T01:19:26.720Z,20.83
2023-05-01T01:22:06.450Z,20.87
2023-05-01T01:25:16.150Z,20.78
2023-05-01T01:28:20.738Z,20.85
2023-05-01T01:31:13.483Z,20.85
2023-05-01T01:33:46.785Z,20.88
2023-05-01T01:36:54.269Z,20.92
2023-05-01T01:39:29.208Z,20.90
2023-05-01T01:42:03.010Z,20.94
2023-05-01T01:44:56.088Z,20.90
2023-05-01T01:47:36.856Z,20.92
2023-05-01T01:50:13.737Z,20.84
2023-05-01T01:52:51.161Z,20.80
2023-05-01T01:55:30.368Z,20.80
2023-05-01T01:58:05.078Z,20.77
2023-05-01T02:00:39.611Z,20.77
2023-05-01T02:03:12.477Z,20.74
2023-05-01T02:05:45.753Z,20.75
2023-05-01T02:08:18.679Z,20.77
2023-05-01T02:10:54.284Z,20.75
2023-05-01T02:13:29.572Z,20.70
2023-05-01T02:16:06.923Z,20.68
2023-05-01T02:18:40.358Z,20.67
2023-05-01T02:21:14.955Z,20.61
2023-05-01T02:23:48.025Z,20.63
2023-05-01T02:26:21.446Z,20.58
2023-05-01T02:28:54.269Z,20.61
2023-05-01T02:31:28.899Z,20.54
2023-05-01T02:34:01.171Z,20.54
2023-05-01T02:36:34.219Z,20.50
2023-05-01T02:39:11.342Z,20.53
2023-05-01T02:41:52.965Z,20.51
2023-05-01T02:44:28.280Z,20.53
2023-05-01T02:47:08.129Z,20.56
2023-05-01T02:49:41.952Z,20.47
2023-05-01T02:52:17.279Z,20.43
2023-05-01T02:54:51.263Z,20.36
2023-05-01T02:57:23.774Z,20.46
2023-05-01T02:59:55.253Z,20.46
2023-05-01T03:02:26.039Z,20.40
2023-05-01T03:04:57.385Z,20.43
2023-05-01T03:07:31.092Z,20.47
2023-05-01T03:10:18.150Z,20.51
2023-05-01T03:12:48.505Z,20.47
2023-05-01T03:15:19.926Z,20.46
2023-05-01T03:17:52.562Z,20.48
2023-05-01T03:20:23.261Z,20.53
2023-05-01T03:22:54.828Z,20.47
2023-05-01T03:25:32.373Z,20.43
2023-05-01T03:28:03.173Z,20.36
2023-05-01T03:30:36.461Z,20.40
2023-05-01T03:33:06.827Z,20.44
2023-05-01T03:35:36.953Z,20.41
2023-05-01T03:38:08.396Z,20.40
2023-05-01T03:41:07.654Z,20.39
2023-05-01T03:43:55.665Z,20.36
2023-05-01T03:46:36.168Z,20.33
2023-05-01T03:49:08.055Z,20.33
2023-05-01T03:51:45.291Z,20.32
2023-05-01T03:54:15.729Z,20.39
2023-05-01T03:57:08.832Z,20.33
2023-05-01T03:59:39.349Z,20.29
2023-05-01T04:02:09.905Z,20.30
2023-05-01T04:04:41.339Z,20.30
2023-05-01T04:07:11.659Z,20.30
2023-05-01T04:09:41.456Z,20.23
2023-05-01T04:12:11.733Z,20.15
2023-05-01T04:14:42.025Z,20.19
2023-05-01T04:17:11.758Z,20.16
2023-05-01T04:19:42.450Z,20.23
2023-05-01T04:22:12.671Z,20.23
2023-05-01T04:24:43.817Z,20.15
2023-05-01T04:27:13.535Z,20.02
2023-05-01T04:29:43.692Z,20.00
2023-05-01T04:32:14.800Z,19.96
2023-05-01T04:34:46.011Z,19.97
2023-05-01T04:37:19.014Z,20.02
2023-05-01T04:39:49.803Z,20.00
2023-05-01T04:42:21.171Z,19.99
2023-05-01T04:44:51.862Z,19.97
2023-05-01T04:47:23.188Z,19.90
2023-05-01T04:49:53.473Z,19.90
2023-05-01T04:52:23.299Z,19.85
2023-05-01T04:54:59.240Z,19.59
2023-05-01T04:57:32.412Z,19.68
2023-05-01T05:00:05.236Z,19.71
2023-05-01T05:02:37.443Z,19.66
2023-05-01T05:05:31.673Z,19.69
2023-05-01T05:08:02.034Z,19.68
2023-05-01T05:10:37.051Z,19.66
2023-05-01T05:13:22.840Z,19.66
2023-05-01T05:16:01.212Z,19.66
2023-05-01T05:18:36.490Z,19.66
2023-05-01T05:21:21.497Z,19.68
2023-05-01T05:24:04.305Z,19.65
2023-05-01T05:26:35.352Z,19.62
2023-05-01T05:29:06.394Z,19.55
2023-05-01T05:31:37.265Z,19.45
2023-05-01T05:34:07.705Z,19.34
2023-05-01T05:36:38.122Z,19.18
2023-05-01T05:39:08.492Z,19.13
2023-05-01T05:41:38.252Z,19.23
2023-05-01T05:44:08.309Z,19.24
2023-05-01T05:46:38.833Z,19.23
2023-05-01T05:49:09.242Z,19.21
2023-05-01T05:51:39.493Z,19.21
2023-05-01T05:54:11.010Z,19.13
2023-05-01T05:56:40.900Z,19.13
2023-05-01T05:59:10.806Z,19.14
2023-05-01T06:01:41.587Z,19.14
2023-05-01T06:04:13.092Z,19.21
2023-05-01T06:06:44.382Z,19.25
2023-05-01T06:09:14.601Z,19.28
2023-05-01T06:11:44.915Z,19.27
2023-05-01T06:14:14.748Z,19.25
2023-05-01T06:16:44.984Z,19.23
2023-05-01T06:19:15.361Z,19.21
2023-05-01T06:21:46.344Z,19.23
2023-05-01T06:24:17.402Z,19.21
2023-05-01T06:26:52.794Z,19.25
2023-05-01T06:29:22.968Z,19.15
2023-05-01T06:31:53.535Z,19.06
2023-05-01T06:34:23.893Z,18.96
2023-05-01T06:36:56.311Z,18.96
2023-05-01T06:39:26.866Z,19.00
2023-05-01T06:41:57.394Z,19.06
2023-05-01T06:44:40.887Z,19.04
2023-05-01T06:47:11.750Z,19.04
2023-05-01T06:50:02.921Z,18.99
2023-05-01T06:52:36.135Z,19.00
2023-05-01T06:55:08.611Z,18.94
2023-05-01T06:57:41.236Z,19.01
2023-05-01T07:00:12.149Z,19.03
2023-05-01T07:02:42.832Z,18.96
2023-05-01T07:05:13.489Z,18.94
2023-05-01T07:07:50.533Z,18.94
2023-05-01T07:10:28.517Z,18.87
2023-05-01T07:12:58.300Z,18.84
2023-05-01T07:15:28.444Z,18.76
2023-05-01T07:17:59.686Z,18.62
2023-05-01T07:20:30.560Z,18.55
2023-05-01T07:23:00.287Z,18.59
2023-05-01T07:25:30.148Z,18.39
2023-05-01T07:28:02.058Z,18.43
2023-05-01T07:30:34.225Z,18.33
2023-05-01T07:33:05.715Z,18.28
2023-05-01T07:35:36.048Z,18.42
2023-05-01T07:38:06.251Z,18.28
2023-05-01T07:40:36.608Z,18.33
2023-05-01T07:43:06.378Z,18.22
2023-05-01T07:45:36.080Z,18.33
2023-05-01T07:48:07.723Z,18.31
2023-05-01T07:50:37.751Z,18.42
2023-05-01T07:53:07.530Z,18.28
2023-05-01T07:55:38.984Z,18.35
2023-05-01T07:58:09.244Z,18.29
2023-05-01T08:00:39.339Z,18.39
2023-05-01T08:03:09.604Z,18.45
2023-05-01T08:05:44.332Z,18.49
2023-05-01T08:08:20.407Z,18.42
2023-05-01T08:10:50.561Z,18.52
2023-05-01T08:13:20.833Z,18.53
2023-05-01T08:15:50.985Z,18.49
2023-05-01T08:18:21.896Z,18.53
2023-05-01T08:20:52.004Z,18.38
2023-05-01T08:23:22.309Z,18.36
2023-05-01T08:25:53.745Z,18.31
2023-05-01T08:28:25.279Z,18.29
2023-05-01T08:30:55.329Z,18.35
2023-05-01T08:33:25.762Z,18.33
2023-05-01T08:35:55.820Z,18.28
2023-05-01T08:38:25.675Z,18.31
2023-05-01T08:40:57.849Z,18.08
2023-05-01T08:43:29.415Z,18.11
2023-05-01T08:46:06.083Z,18.22
2023-05-01T08:48:38.377Z,18.00
2023-05-01T08:51:08.745Z,18.00
2023-05-01T08:53:38.741Z,18.04
2023-05-01T08:56:10.151Z,18.02
2023-05-01T08:59:02.634Z,18.05
2023-05-01T09:01:35.124Z,17.98
2023-05-01T09:04:06.320Z,17.92
2023-05-01T09:06:37.254Z,17.98
2023-05-01T09:09:07.836Z,17.85
2023-05-01T09:11:38.589Z,17.85
2023-05-01T09:14:09.705Z,17.92
2023-05-01T09:16:39.802Z,18.02
2023-05-01T09:19:09.711Z,17.92
2023-05-01T09:21:39.682Z,17.98
2023-05-01T09:24:09.636Z,17.90
2023-05-01T09:26:43.079Z,17.71
2023-05-01T09:29:13.398Z,17.63
2023-05-01T09:31:43.450Z,17.64
2023-05-01T09:34:14.175Z,17.64
2023-05-01T09:36:48.826Z,17.70
2023-05-01T09:39:25.279Z,17.81
2023-05-01T09:41:55.921Z,17.90
2023-05-01T09:44:28.014Z,17.91
2023-05-01T09:46:58.071Z,17.92
2023-05-01T09:49:51.185Z,17.71
2023-05-01T09:52:21.321Z,17.75
2023-05-01T09:54:51.399Z,17.84
2023-05-01T09:57:39.336Z,17.90
2023-05-01T10:00:30.156Z,17.78
2023-05-01T10:03:13.983Z,17.77
2023-05-01T10:05:47.520Z,17.82
2023-05-01T10:08:17.629Z,17.84
2023-05-01T10:11:09.368Z,17.88
2023-05-01T10:13:39.638Z,17.90
2023-05-01T10:16:29.881Z,17.91
2023-05-01T10:19:02.405Z,17.90
2023-05-01T10:21:35.609Z,17.85
2023-05-01T10:24:07.014Z,17.74
2023-05-01T10:26:38.477Z,17.71
2023-05-01T10:29:08.592Z,17.77
2023-05-01T10:31:42.444Z,17.85
2023-05-01T10:34:18.118Z,17.98
2023-05-01T10:36:59.523Z,18.06
2023-05-01T10:39:37.444Z,18.05
2023-05-01T10:42:15.442Z,18.04
2023-05-01T10:44:49.011Z,18.11
2023-05-01T10:47:32.499Z,18.12
2023-05-01T10:50:16.799Z,18.15
2023-05-01T10:53:11.034Z,18.26
2023-05-01T10:55:45.933Z,18.29
2023-05-01T10:58:35.102Z,18.35
2023-05-01T11:01:35.740Z,18.39
2023-05-01T11:04:09.273Z,18.45
2023-05-01T11:06:39.495Z,18.51
2023-05-01T11:09:42.268Z,18.53
2023-05-01T11:12:16.755Z,18.59
2023-05-01T11:14:56.979Z,18.69
2023-05-01T11:17:45.329Z,18.73
2023-05-01T11:20:38.066Z,18.84
2023-05-01T11:23:08.290Z,18.87
2023-05-01T11:25:38.422Z,18.92
2023-05-01T11:28:08.499Z,19.00
2023-05-01T11:30:42.338Z,19.11
2023-05-01T11:33:12.523Z,19.17
2023-05-01T11:35:43.484Z,19.24
2023-05-01T11:38:22.847Z,19.24
2023-05-01T11:40:58.870Z,19.35
2023-05-01T11:43:29.187Z,19.50
2023-05-01T11:46:03.835Z,19.61
2023-05-01T11:48:34.352Z,19.87
2023-05-01T11:51:13.312Z,20.13
2023-05-01T11:53:43.280Z,20.32
2023-05-01T11:56:27.188Z,20.50
2023-05-01T11:58:59.006Z,20.61
2023-05-01T12:01:40.189Z,20.61
2023-05-01T12:04:10.578Z,20.63
2023-05-01T12:06:47.823Z,20.71
2023-05-01T12:09:20.348Z,20.77
2023-05-01T12:11:53.293Z,20.85
2023-05-01T12:14:25.461Z,20.88
2023-05-01T12:16:56.072Z,20.91
2023-05-01T12:19:27.059Z,20.88
2023-05-01T12:22:12.174Z,20.85
2023-05-01T12:24:52.807Z,20.94
2023-05-01T12:27:23.374Z,20.99
2023-05-01T12:29:53.683Z,21.12
2023-05-01T12:32:30.938Z,21.32
2023-05-01T12:35:01.155Z,21.39
2023-05-01T12:37:34.010Z,21.59
2023-05-01T12:40:06.690Z,21.59
2023-05-01T12:42:37.112Z,21.67
2023-05-01T12:45:07.089Z,21.85
2023-05-01T12:47:40.095Z,21.93
2023-05-01T12:50:12.457Z,22.06
2023-05-01T12:52:42.827Z,22.41
2023-05-01T12:55:13.731Z,22.55
2023-05-01T12:57:56.290Z,22.69
2023-05-01T13:00:26.464Z,22.85
2023-05-01T13:02:56.592Z,22.91
2023-05-01T13:05:26.806Z,23.10
2023-05-01T13:07:56.737Z,23.22
2023-05-01T13:10:33.555Z,23.45
2023-05-01T13:13:03.926Z,23.57
2023-05-01T13:15:33.956Z,23.53
2023-05-01T13:18:07.233Z,23.36
2023-05-01T13:20:40.005Z,23.45
2023-05-01T13:23:17.010Z,23.54
2023-05-01T13:25:47.472Z,23.63
2023-05-01T13:28:21.842Z,23.68
2023-05-01T13:30:52.115Z,23.73
2023-05-01T13:33:21.785Z,23.88
2023-05-01T13:35:52.235Z,24.04
2023-05-01T13:38:25.153Z,24.18
2023-05-01T13:40:55.296Z,24.35
2023-05-01T13:43:26.184Z,24.49
2023-05-01T13:46:01.510Z,24.68
2023-05-01T13:48:33.114Z,24.84
2023-05-01T13:51:03.208Z,24.91
2023-05-01T13:53:33.801Z,24.94
2023-05-01T13:56:07.853Z,24.89
2023-05-01T13:58:39.220Z,24.84
2023-05-01T14:01:19.560Z,24.63
2023-05-01T14:03:50.609Z,24.42
2023-05-01T14:06:22.470Z,24.42
2023-05-01T14:08:53.721Z,24.59
2023-05-01T14:11:23.798Z,24.83
2023-05-01T14:13:54.228Z,25.03
2023-05-01T14:16:29.543Z,25.16
2023-05-01T14:18:59.873Z,25.26
2023-05-01T14:21:29.948Z,25.40
2023-05-01T14:24:00.379Z,25.57
2023-05-01T14:26:30.401Z,25.67
2023-05-01T14:29:00.480Z,25.91
2023-05-01T14:31:33.164Z,25.99
2023-05-01T14:34:05.884Z,26.03
2023-05-01T14:36:35.952Z,26.16
2023-05-01T14:39:06.792Z,26.30
2023-05-01T14:41:40.199Z,26.40
2023-05-01T14:44:19.807Z,26.44
2023-05-01T14:46:52.512Z,26.37
2023-05-01T14:49:25.682Z,26.46
2023-05-01T14:51:55.769Z,26.60
2023-05-01T14:54:25.576Z,26.64
2023-05-01T14:56:55.608Z,26.74
2023-05-01T14:59:25.701Z,26.74
2023-05-01T15:01:55.614Z,27.01
2023-05-01T15:04:25.560Z,27.21
2023-05-01T15:06:55.155Z,27.43
2023-05-01T15:09:24.956Z,27.31
2023-05-01T15:11:55.227Z,27.12
2023-05-01T15:14:25.275Z,27.37
2023-05-01T15:16:54.849Z,27.51
2023-05-01T15:19:24.937Z,27.66
2023-05-01T15:21:54.921Z,27.76
2023-05-01T15:24:24.946Z,27.74
2023-05-01T15:26:54.824Z,27.48
2023-05-01T15:29:24.649Z,27.48
2023-05-01T15:32:08.208Z,27.41
2023-05-01T15:34:42.517Z,27.76
2023-05-01T15:37:12.813Z,28.03
2023-05-01T15:39:42.790Z,28.23
2023-05-01T15:42:12.548Z,27.65
2023-05-01T15:45:03.913Z,27.10
2023-05-01T15:47:33.950Z,26.92
2023-05-01T15:50:04.069Z,26.63
2023-05-01T15:52:34.154Z,26.36
2023-05-01T15:55:04.226Z,26.36
2023-05-01T15:57:36.000Z,26.26
2023-05-01T16:00:06.736Z,26.29
2023-05-01T16:02:36.781Z,26.33
2023-05-01T16:05:07.063Z,26.30
2023-05-01T16:07:37.413Z,26.30
2023-05-01T16:10:09.549Z,26.30
2023-05-01T16:12:39.722Z,26.65
2023-05-01T16:15:10.596Z,26.54
2023-05-01T16:17:44.989Z,26.56
2023-05-01T16:20:15.919Z,26.22
2023-05-01T16:22:46.334Z,25.96
2023-05-01T16:25:17.039Z,25.86
2023-05-01T16:27:48.460Z,25.96
2023-05-01T16:30:19.039Z,26.18
2023-05-01T16:32:49.203Z,26.77
2023-05-01T16:35:19.801Z,26.94
2023-05-01T16:37:49.824Z,26.53
2023-05-01T16:40:20.261Z,26.22
2023-05-01T16:42:57.252Z,25.88
2023-05-01T16:45:28.667Z,26.35
2023-05-01T16:47:59.588Z,26.84
2023-05-01T16:50:30.210Z,26.98
2023-05-01T16:53:00.210Z,27.24
2023-05-01T16:55:30.329Z,27.90
2023-05-01T16:58:00.330Z,28.36
2023-05-01T17:00:30.494Z,27.97
2023-05-01T17:03:00.592Z,27.66
2023-05-01T17:05:30.684Z,27.62
2023-05-01T17:08:00.471Z,27.81
2023-05-01T17:10:30.000Z,26.71
2023-05-01T17:12:59.973Z,25.79
2023-05-01T17:15:29.910Z,27.46
2023-05-01T17:18:00.903Z,27.34
2023-05-01T17:20:30.958Z,27.69
2023-05-01T17:23:00.991Z,28.25
2023-05-01T17:25:30.573Z,28.92
2023-05-01T17:28:00.371Z,29.22
2023-05-01T17:30:30.390Z,29.15
2023-05-01T17:33:00.717Z,28.58
2023-05-01T17:35:30.975Z,28.57
2023-05-01T17:38:00.575Z,29.52
2023-05-01T17:40:30.256Z,29.66
2023-05-01T17:43:00.064Z,29.67
2023-05-01T17:45:30.056Z,29.47
2023-05-01T17:48:00.547Z,28.88
2023-05-01T17:50:30.707Z,28.64
2023-05-01T17:53:00.517Z,27.46
2023-05-01T17:55:30.028Z,27.07
2023-05-01T17:57:59.910Z,26.29
2023-05-01T18:00:30.061Z,25.92
2023-05-01T18:03:00.058Z,25.58
2023-05-01T18:05:29.504Z,25.71
2023-05-01T18:07:59.220Z,25.82
2023-05-01T18:10:32.238Z,26.03
2023-05-01T18:13:02.881Z,26.08
2023-05-01T18:15:32.943Z,26.29
2023-05-01T18:18:02.601Z,27.52
2023-05-01T18:20:32.335Z,27.00
2023-05-01T18:23:02.985Z,26.35
2023-05-01T18:25:32.912Z,25.86
2023-05-01T18:28:02.635Z,25.62
2023-05-01T18:30:32.520Z,25.44
2023-05-01T18:33:02.585Z,25.31
2023-05-01T18:35:32.416Z,25.09
2023-05-01T18:38:01.929Z,25.03
2023-05-01T18:40:32.782Z,24.99
2023-05-01T18:43:03.033Z,25.04
2023-05-01T18:45:33.160Z,25.45
2023-05-01T18:48:03.018Z,25.48
2023-05-01T18:50:33.065Z,25.45
2023-05-01T18:53:02.984Z,25.34
2023-05-01T18:55:32.540Z,25.07
2023-05-01T18:58:03.149Z,24.84
2023-05-01T19:00:33.416Z,24.66
2023-05-01T19:03:03.347Z,24.59
2023-05-01T19:05:33.693Z,24.47
2023-05-01T19:08:06.521Z,24.38
2023-05-01T19:10:38.279Z,24.24
2023-05-01T19:13:08.554Z,24.18
2023-05-01T19:15:38.581Z,24.17
2023-05-01T19:18:09.318Z,24.15
2023-05-01T19:20:39.747Z,24.12
2023-05-01T19:23:09.585Z,24.01
2023-05-01T19:25:39.865Z,23.96
2023-05-01T19:28:09.933Z,23.90
2023-05-01T19:30:39.788Z,23.84
2023-05-01T19:33:09.723Z,23.74
2023-05-01T19:35:39.633Z,23.73
2023-05-01T19:38:09.379Z,23.70
2023-05-01T19:40:40.773Z,23.68
2023-05-01T19:43:10.895Z,23.68
2023-05-01T19:45:40.844Z,23.78
2023-05-01T19:48:11.017Z,23.67
2023-05-01T19:50:41.050Z,23.61
2023-05-01T19:53:11.358Z,23.49
2023-05-01T19:55:41.985Z,23.27
2023-05-01T19:58:12.437Z,23.20
2023-05-01T20:00:42.303Z,23.13
2023-05-01T20:03:12.465Z,23.03
2023-05-01T20:05:42.724Z,22.96
2023-05-01T20:08:13.887Z,22.92
2023-05-01T20:10:43.812Z,22.81
2023-05-01T20:13:13.701Z,22.73
2023-05-01T20:15:44.226Z,22.65
2023-05-01T20:18:15.079Z,22.67
2023-05-01T20:20:45.108Z,22.57
2023-05-01T20:23:16.918Z,22.54
2023-05-01T20:25:52.644Z,22.45
2023-05-01T20:28:22.701Z,22.41
2023-05-01T20:30:52.538Z,22.31
2023-05-01T20:33:22.636Z,22.30
2023-05-01T20:35:54.102Z,22.22
2023-05-01T20:38:25.359Z,22.17
2023-05-01T20:40:55.858Z,22.14
2023-05-01T20:43:25.892Z,22.01
2023-05-01T20:45:56.002Z,21.93
2023-05-01T20:48:26.216Z,21.86
2023-05-01T20:50:56.126Z,21.82
2023-05-01T20:53:26.491Z,21.76
2023-05-01T20:55:56.633Z,21.75
2023-05-01T20:58:27.437Z,21.76
2023-05-01T21:00:57.535Z,21.66
2023-05-01T21:03:28.240Z,21.65
2023-05-01T21:06:01.840Z,21.56
2023-05-01T21:08:32.688Z,21.53
2023-05-01T21:11:03.609Z,21.45
2023-05-01T21:13:34.010Z,21.41
2023-05-01T21:16:04.274Z,21.35
2023-05-01T21:18:35.666Z,21.35
2023-05-01T21:21:05.769Z,21.31
2023-05-01T21:23:35.557Z,21.31
2023-05-01T21:26:05.612Z,21.26
2023-05-01T21:28:35.641Z,21.24
2023-05-01T21:31:05.517Z,21.25
2023-05-01T21:33:35.535Z,21.25
2023-05-01T21:36:05.730Z,21.26
2023-05-01T21:38:36.204Z,21.16
2023-05-01T21:41:07.380Z,21.15
2023-05-01T21:43:37.647Z,21.15
2023-05-01T21:46:07.522Z,21.15
2023-05-01T21:48:37.389Z,21.11
2023-05-01T21:51:07.247Z,21.08
2023-05-01T21:53:37.578Z,21.11
2023-05-01T21:56:08.341Z,21.08
2023-05-01T21:58:40.701Z,21.05
2023-05-01T22:01:13.285Z,21.04
2023-05-01T22:03:45.460Z,21.01
2023-05-01T22:06:15.525Z,20.95
2023-05-01T22:08:45.633Z,20.92
2023-05-01T22:11:16.052Z,20.90
2023-05-01T22:13:46.467Z,20.85
2023-05-01T22:16:16.268Z,20.83
2023-05-01T22:18:49.788Z,20.83
2023-05-01T22:21:21.235Z,20.84
2023-05-01T22:23:51.226Z,20.81
2023-05-01T22:26:21.222Z,20.78
2023-05-01T22:28:51.281Z,20.77
2023-05-01T22:31:21.453Z,20.68
2023-05-01T22:33:51.764Z,20.68
2023-05-01T22:36:21.932Z,20.67
2023-05-01T22:38:53.356Z,20.71
2023-05-01T22:41:22.836Z,20.71
2023-05-01T22:43:52.939Z,20.75
2023-05-01T22:46:23.034Z,20.68
2023-05-01T22:48:53.031Z,20.70
2023-05-01T22:51:23.112Z,20.71
2023-05-01T22:53:53.150Z,20.67
2023-05-01T22:56:23.659Z,20.67
2023-05-01T22:58:53.734Z,20.65
2023-05-01T23:01:26.207Z,20.63
2023-05-01T23:03:57.100Z,20.65
2023-05-01T23:06:27.265Z,20.64
2023-05-01T23:08:57.393Z,20.63
2023-05-01T23:11:31.961Z,20.61
2023-05-01T23:14:03.945Z,20.63
2023-05-01T23:16:42.386Z,20.67
2023-05-01T23:19:21.622Z,20.57
2023-05-01T23:21:52.987Z,20.57
2023-05-01T23:24:22.995Z,20.54
2023-05-01T23:26:56.452Z,20.56
2023-05-01T23:29:26.868Z,20.56
2023-05-01T23:31:58.090Z,20.56
2023-05-01T23:34:30.383Z,20.54
2023-05-01T23:37:00.524Z,20.53
2023-05-01T23:39:30.474Z,20.47
2023-05-01T23:42:00.275Z,20.43
2023-05-01T23:44:30.792Z,20.40
2023-05-01T23:47:01.057Z,20.39
2023-05-01T23:49:31.394Z,20.33
2023-05-01T23:52:02.986Z,20.37
2023-05-01T23:54:34.541Z,20.30
2023-05-01T23:57:04.853Z,20.30
2023-05-01T23:59:34.892Z,20.33
